Terminal Aerodrome Forecast
Issued by NWS

Home | Current Version | Previous Version | Text Only | Print | Product List | Glossary On
Versions: 1 2 3 4 5 6 7 8 9 10 11 12 13 14 15 16 17 18 19 20 21 22 23 24 25 26 27
000
FTUS45 KPSR 200835 AAA
TAFPHX
TAF AMD
KPHX 200835Z 2009/2112 27006KT P6SM FEW120 SCT200
     FM201100 10006KT P6SM SCT150 BKN200
     FM202100 27008KT P6SM FEW100 SCT150 SCT200
     FM210300 10010KT P6SM SCT100 SCT150 BKN200=

USA.gov is the U.S. government's official web portal to all federal, state and local government web resources and services.